Date,TemperatureHighF,TemperatureAvgF,TemperatureLowF,DewpointHighF,DewpointAvgF,DewpointLowF,HumidityHigh,HumidityAvg,HumidityLow,PressureMaxIn,PressureMinIn,WindSpeedMaxMPH,WindSpeedAvgMPH,GustSpeedMaxMPH,PrecipitationSumIn
2013-3-1,32,28,23,28,25,20,92,87,81,30.27,30.13,9,4,16,0.07
2013-3-2,31,25,19,20,19,15,92,79,63,30.34,30.25,14,4,15,0.11
2013-3-3,36,26,12,25,18,10,92,74,52,30.25,29.98,11,4,14,0.05
2013-3-4,50,40,32,33,29,25,86,68,53,29.97,29.72,16,7,24,0.28
2013-3-5,36,32,30,32,26,21,95,80,62,30.24,29.83,21,9,29,0.06
2013-3-6,36,29,22,23,21,19,87,74,60,30.43,30.24,16,4,20,0.00
2013-3-7,46,32,17,29,24,16,93,73,51,30.42,30.27,8,4,13,0.00
2013-3-8,51,40,28,33,30,26,91,68,51,30.36,30.14,15,6,16,0.01
2013-3-9,69,52,39,48,39,31,93,66,33,30.13,29.70,19,8,26,0.53
2013-3-10,55,49,34,53,47,33,97,93,84,29.78,29.57,14,6,23,0.92
2013-3-11,34,31,28,33,27,24,95,86,75,30.02,29.75,17,7,25,0.00
2013-3-12,46,34,26,32,26,23,89,74,53,30.27,30.00,18,6,26,0.00
2013-3-13,42,32,24,23,20,18,79,62,39,30.48,30.27,17,5,19,0.00
2013-3-14,66,43,27,43,29,19,79,60,37,30.41,30.06,13,4,16,0.00
2013-3-15,78,56,35,50,42,32,94,65,32,30.08,29.64,12,3,18,0.00
2013-3-16,64,44,36,48,38,33,89,80,56,30.06,29.64,18,6,26,0.03
2013-3-17,36,33,31,33,31,28,95,90,83,30.08,29.79,16,8,22,0.53
2013-3-18,51,39,33,41,32,20,97,79,48,30.05,29.72,21,6,26,0.02
2013-3-19,44,35,29,30,20,14,86,56,30,30.24,30.05,9,3,14,0.00
2013-3-20,35,30,23,31,19,11,95,66,41,30.32,30.15,15,6,23,0.00
2013-3-21,38,27,16,26,14,10,81,60,37,30.16,29.97,9,2,14,0.00
2013-3-22,40,34,31,29,24,18,70,66,60,30.04,29.98,8,3,13,0.00
2013-3-23,48,40,35,36,28,24,91,64,49,30.05,29.84,14,6,21,0.13
2013-3-24,37,30,28,35,29,27,96,95,91,29.95,29.67,18,9,28,0.15
2013-3-25,32,28,25,30,26,24,96,93,88,30.27,29.94,16,7,20,0.21
2013-3-26,37,30,22,28,24,21,92,79,59,30.40,30.26,8,4,16,0.20
2013-3-27,44,34,20,34,26,18,94,74,49,30.41,30.27,8,2,13,0.01
2013-3-28,58,46,35,42,35,29,81,69,51,30.32,30.19,14,5,18,0.00
2013-3-29,64,52,36,45,40,34,91,66,38,30.23,30.15,13,4,16,0.00
2013-3-30,49,46,42,48,44,39,97,91,78,30.17,29.90,13,4,16,0.23
2013-3-31,66,54,46,50,44,32,98,71,39,29.95,29.86,14,4,19,0.00